createdAt,value
2023-01-13T00:01:10.972Z,0.24
2023-01-13T00:03:37.869Z,0.21
2023-01-13T00:06:05.573Z,0.19
2023-01-13T00:08:32.781Z,0.16
2023-01-13T00:10:59.356Z,0.19
2023-01-13T00:13:29.387Z,-0.04
2023-01-13T00:16:01.032Z,0.11
2023-01-13T00:18:28.800Z,0.11
2023-01-13T00:21:19.908Z,0.05
2023-01-13T00:23:47.141Z,0.00
2023-01-13T00:26:15.292Z,0.07
2023-01-13T00:28:42.077Z,-0.07
2023-01-13T00:31:14.582Z,0.08
2023-01-13T00:33:41.837Z,0.05
2023-01-13T00:36:10.068Z,0.08
2023-01-13T00:38:37.924Z,0.06
2023-01-13T00:41:07.445Z,0.09
2023-01-13T00:43:36.440Z,0.08
2023-01-13T00:46:04.964Z,0.13
2023-01-13T00:48:32.635Z,0.10
2023-01-13T00:51:03.628Z,0.12
2023-01-13T00:53:35.065Z,0.10
2023-01-13T00:56:07.934Z,0.09
2023-01-13T00:58:35.951Z,0.06
2023-01-13T01:01:05.253Z,0.02
2023-01-13T01:03:32.558Z,0.00
2023-01-13T01:06:04.261Z,0.05
2023-01-13T01:08:31.141Z,-0.08
2023-01-13T01:11:06.018Z,-0.11
2023-01-13T01:13:33.287Z,-0.11
2023-01-13T01:16:03.261Z,-0.07
2023-01-13T01:18:30.042Z,-0.09
2023-01-13T01:21:00.111Z,-0.11
2023-01-13T01:23:29.175Z,-0.13
2023-01-13T01:26:02.570Z,-0.16
2023-01-13T01:28:30.347Z,-0.29
2023-01-13T01:30:58.533Z,-0.23
2023-01-13T01:33:26.433Z,-0.29
2023-01-13T01:35:54.788Z,-0.34
2023-01-13T01:38:23.433Z,-0.30
2023-01-13T01:40:50.225Z,-0.29
2023-01-13T01:43:37.977Z,-0.19
2023-01-13T01:46:05.080Z,-0.23
2023-01-13T01:48:38.124Z,-0.31
2023-01-13T01:51:09.818Z,-0.56
2023-01-13T01:53:36.919Z,-0.53
2023-01-13T01:56:03.895Z,-0.71
2023-01-13T01:58:35.264Z,-0.83
2023-01-13T02:01:02.558Z,-0.80
2023-01-13T02:03:30.103Z,-0.84
2023-01-13T02:05:57.103Z,-0.71
2023-01-13T02:08:24.642Z,-0.53
2023-01-13T02:10:54.030Z,-0.45
2023-01-13T02:13:22.679Z,-0.35
2023-01-13T02:16:00.051Z,-0.33
2023-01-13T02:18:56.074Z,-0.18
2023-01-13T02:21:44.967Z,-0.21
2023-01-13T02:24:55.489Z,-0.10
2023-01-13T02:27:52.424Z,-0.18
2023-01-13T02:30:49.939Z,-0.30
2023-01-13T02:33:48.911Z,-0.52
2023-01-13T02:36:58.287Z,-0.57
2023-01-13T02:39:45.830Z,-0.53
2023-01-13T02:42:51.995Z,-0.66
2023-01-13T02:45:42.028Z,-0.53
2023-01-13T02:48:11.194Z,-0.55
2023-01-13T02:50:44.433Z,-0.45
2023-01-13T02:53:26.773Z,-0.68
2023-01-13T02:55:55.671Z,-0.51
2023-01-13T02:58:29.003Z,-0.48
2023-01-13T03:00:55.966Z,-0.45
2023-01-13T03:03:22.754Z,-0.33
2023-01-13T03:05:54.209Z,-0.31
2023-01-13T03:08:29.796Z,-0.22
2023-01-13T03:11:04.080Z,-0.23
2023-01-13T03:14:27.021Z,-0.32
2023-01-13T03:17:17.095Z,-0.28
2023-01-13T03:19:55.678Z,-0.30
2023-01-13T03:22:35.261Z,-0.48
2023-01-13T03:25:10.610Z,-0.33
2023-01-13T03:27:46.256Z,-0.31
2023-01-13T03:30:18.217Z,-0.42
2023-01-13T03:32:59.666Z,-0.33
2023-01-13T03:35:32.309Z,-0.56
2023-01-13T03:38:17.249Z,-0.55
2023-01-13T03:40:58.735Z,-0.52
2023-01-13T03:43:59.678Z,-0.47
2023-01-13T03:46:50.985Z,-0.34
2023-01-13T03:49:22.154Z,-0.41
2023-01-13T03:51:56.172Z,-0.38
2023-01-13T03:54:28.061Z,-0.38
2023-01-13T03:56:59.625Z,-0.32
2023-01-13T03:59:33.553Z,-0.29
2023-01-13T04:02:12.923Z,-0.31
2023-01-13T04:04:45.261Z,-0.22
2023-01-13T04:07:30.667Z,-0.41
2023-01-13T04:10:01.870Z,-0.54
2023-01-13T04:12:51.667Z,-0.45
2023-01-13T04:15:22.266Z,-0.39
2023-01-13T04:17:50.183Z,-0.43
2023-01-13T04:20:17.053Z,-0.42
2023-01-13T04:22:43.792Z,-0.37
2023-01-13T04:25:11.427Z,-0.24
2023-01-13T04:27:38.170Z,-0.26
2023-01-13T04:30:05.610Z,-0.07
2023-01-13T04:32:32.333Z,-0.19
2023-01-13T04:34:59.053Z,-0.15
2023-01-13T04:37:25.799Z,-0.15
2023-01-13T04:39:52.572Z,-0.25
2023-01-13T04:42:19.297Z,-0.24
2023-01-13T04:44:45.993Z,-0.13
2023-01-13T04:47:12.819Z,-0.13
2023-01-13T04:49:39.551Z,-0.18
2023-01-13T04:52:07.421Z,-0.34
2023-01-13T04:54:34.210Z,-0.36
2023-01-13T04:57:01.034Z,-0.25
2023-01-13T04:59:27.859Z,-0.33
2023-01-13T05:01:54.699Z,-0.40
2023-01-13T05:04:21.688Z,-0.37
2023-01-13T05:06:50.608Z,-0.38
2023-01-13T05:09:17.431Z,-0.42
2023-01-13T05:12:02.629Z,-0.26
2023-01-13T05:14:48.003Z,-0.14
2023-01-13T05:17:25.061Z,-0.17
2023-01-13T05:19:52.008Z,-0.28
2023-01-13T05:22:39.344Z,-0.17
2023-01-13T05:25:22.842Z,-0.18
2023-01-13T05:27:50.746Z,-0.09
2023-01-13T05:30:18.512Z,-0.12
2023-01-13T05:32:45.273Z,-0.19
2023-01-13T05:35:16.323Z,-0.05
2023-01-13T05:37:44.625Z,-0.20
2023-01-13T05:40:31.910Z,-0.16
2023-01-13T05:43:22.230Z,-0.15
2023-01-13T05:45:58.069Z,-0.08
2023-01-13T05:48:27.623Z,0.01
2023-01-13T05:50:55.072Z,-0.14
2023-01-13T05:53:30.872Z,-0.15
2023-01-13T05:55:59.114Z,-0.08
2023-01-13T05:58:27.556Z,0.02
2023-01-13T06:01:01.636Z,-0.19
2023-01-13T06:03:28.664Z,-0.09
2023-01-13T06:05:59.398Z,-0.03
2023-01-13T06:08:26.717Z,-0.11
2023-01-13T06:10:54.267Z,-0.20
2023-01-13T06:13:22.440Z,-0.06
2023-01-13T06:15:50.237Z,0.05
2023-01-13T06:18:17.529Z,0.01
2023-01-13T06:20:47.227Z,-0.03
2023-01-13T06:23:14.196Z,0.07
2023-01-13T06:25:50.649Z,0.12
2023-01-13T06:28:17.487Z,-0.02
2023-01-13T06:30:51.086Z,0.12
2023-01-13T06:33:22.486Z,0.18
2023-01-13T06:35:54.511Z,0.30
2023-01-13T06:38:24.437Z,0.29
2023-01-13T06:40:51.373Z,0.25
2023-01-13T06:43:18.083Z,0.31
2023-01-13T06:45:49.326Z,0.13
2023-01-13T06:48:18.115Z,0.03
2023-01-13T06:50:45.262Z,0.14
2023-01-13T06:53:12.868Z,0.11
2023-01-13T06:55:40.182Z,0.08
2023-01-13T06:58:07.434Z,0.13
2023-01-13T07:00:40.187Z,0.11
2023-01-13T07:03:12.122Z,0.29
2023-01-13T07:05:40.189Z,0.26
2023-01-13T07:08:07.996Z,0.28
2023-01-13T07:10:35.443Z,0.32
2023-01-13T07:13:21.406Z,0.37
2023-01-13T07:16:00.041Z,0.38
2023-01-13T07:18:28.712Z,0.39
2023-01-13T07:20:57.834Z,0.49
2023-01-13T07:23:26.951Z,0.50
2023-01-13T07:25:56.496Z,0.49
2023-01-13T07:28:24.847Z,0.59
2023-01-13T07:30:51.907Z,0.52
2023-01-13T07:33:19.038Z,0.54
2023-01-13T07:35:48.547Z,0.47
2023-01-13T07:38:16.411Z,0.56
2023-01-13T07:40:43.291Z,0.62
2023-01-13T07:43:31.586Z,0.74
2023-01-13T07:46:04.877Z,0.77
2023-01-13T07:48:34.527Z,0.98
2023-01-13T07:51:06.354Z,1.07
2023-01-13T07:53:33.483Z,1.12
2023-01-13T07:56:01.244Z,1.08
2023-01-13T07:58:28.797Z,0.99
2023-01-13T08:00:55.940Z,1.11
2023-01-13T08:03:22.858Z,1.28
2023-01-13T08:05:50.070Z,1.29
2023-01-13T08:08:17.553Z,1.31
2023-01-13T08:10:45.140Z,1.50
2023-01-13T08:13:20.290Z,1.65
2023-01-13T08:15:52.408Z,1.57
2023-01-13T08:18:22.280Z,1.72
2023-01-13T08:20:52.603Z,1.77
2023-01-13T08:23:20.560Z,1.81
2023-01-13T08:25:47.396Z,1.79
2023-01-13T08:28:15.826Z,1.86
2023-01-13T08:30:42.995Z,1.68
2023-01-13T08:33:11.794Z,1.61
2023-01-13T08:35:40.409Z,1.76
2023-01-13T08:38:08.148Z,1.97
2023-01-13T08:40:35.280Z,2.17
2023-01-13T08:43:02.287Z,2.26
2023-01-13T08:45:29.147Z,2.45
2023-01-13T08:47:55.949Z,2.56
2023-01-13T08:50:22.759Z,2.61
2023-01-13T08:52:49.533Z,2.87
2023-01-13T08:55:16.403Z,3.10
2023-01-13T08:57:43.225Z,3.17
2023-01-13T09:00:10.630Z,3.28
2023-01-13T09:02:38.631Z,3.27
2023-01-13T09:05:09.573Z,2.66
2023-01-13T09:07:38.401Z,2.67
2023-01-13T09:10:07.144Z,2.61
2023-01-13T09:12:52.783Z,2.50
2023-01-13T09:15:19.638Z,2.41
2023-01-13T09:17:47.907Z,2.46
2023-01-13T09:20:14.916Z,2.53
2023-01-13T09:22:41.726Z,2.78
2023-01-13T09:25:09.043Z,2.98
2023-01-13T09:27:35.828Z,3.19
2023-01-13T09:30:02.592Z,3.36
2023-01-13T09:32:29.289Z,3.47
2023-01-13T09:35:02.379Z,3.56
2023-01-13T09:37:35.443Z,3.68
2023-01-13T09:40:09.869Z,3.88
2023-01-13T09:43:07.750Z,3.92
2023-01-13T09:45:42.858Z,4.05
2023-01-13T09:48:17.195Z,4.16
2023-01-13T09:50:50.135Z,4.07
2023-01-13T09:53:25.799Z,3.98
2023-01-13T09:55:53.124Z,3.97
2023-01-13T09:58:19.910Z,3.97
2023-01-13T10:00:55.444Z,3.92
2023-01-13T10:03:29.415Z,3.89
2023-01-13T10:06:14.860Z,3.99
2023-01-13T10:08:44.164Z,3.94
2023-01-13T10:11:55.892Z,4.10
2023-01-13T10:14:37.822Z,4.11
2023-01-13T10:17:11.961Z,4.08
2023-01-13T10:19:41.403Z,4.10
2023-01-13T10:22:41.528Z,4.28
2023-01-13T10:25:18.353Z,4.48
2023-01-13T10:27:49.993Z,4.75
2023-01-13T10:30:22.882Z,4.88
2023-01-13T10:32:56.237Z,5.02
2023-01-13T10:35:53.877Z,5.28
2023-01-13T10:38:30.983Z,5.54
2023-01-13T10:41:01.136Z,5.77
2023-01-13T10:43:29.604Z,6.16
2023-01-13T10:45:56.750Z,6.67
2023-01-13T10:48:23.522Z,7.10
2023-01-13T10:50:50.361Z,7.48
2023-01-13T10:53:25.612Z,7.71
2023-01-13T10:56:04.728Z,7.85
2023-01-13T10:58:32.414Z,7.70
2023-01-13T11:01:06.251Z,7.70
2023-01-13T11:03:43.119Z,7.60
2023-01-13T11:06:19.385Z,7.53
2023-01-13T11:08:50.436Z,7.46
2023-01-13T11:11:29.533Z,7.36
2023-01-13T11:14:21.615Z,7.26
2023-01-13T11:16:55.240Z,7.22
2023-01-13T11:19:27.696Z,7.26
2023-01-13T11:22:02.347Z,7.21
2023-01-13T11:24:52.255Z,7.18
2023-01-13T11:27:54.287Z,7.17
2023-01-13T11:30:38.782Z,7.11
2023-01-13T11:33:16.327Z,7.14
2023-01-13T11:36:47.398Z,7.16
2023-01-13T11:39:31.109Z,7.15
2023-01-13T11:42:31.177Z,7.18
2023-01-13T11:45:23.711Z,7.35
2023-01-13T11:47:58.992Z,7.38
2023-01-13T11:50:36.045Z,7.43
2023-01-13T11:53:28.219Z,7.39
2023-01-13T11:56:29.742Z,7.45
2023-01-13T11:59:19.289Z,7.60
2023-01-13T12:02:14.818Z,7.82
2023-01-13T12:05:00.914Z,8.04
2023-01-13T12:07:37.870Z,8.21
2023-01-13T12:10:30.654Z,8.23
2023-01-13T12:13:29.941Z,8.28
2023-01-13T12:16:08.200Z,8.18
2023-01-13T12:18:52.975Z,8.06
2023-01-13T12:21:27.044Z,7.92
2023-01-13T12:24:21.421Z,7.95
2023-01-13T12:27:03.337Z,7.84
2023-01-13T12:29:34.261Z,8.04
2023-01-13T12:32:05.012Z,8.08
2023-01-13T12:34:56.281Z,8.00
2023-01-13T12:37:48.106Z,7.82
2023-01-13T12:41:10.224Z,7.75
2023-01-13T12:43:56.411Z,7.66
2023-01-13T12:46:23.258Z,7.73
2023-01-13T12:48:54.949Z,7.67
2023-01-13T12:51:27.617Z,7.60
2023-01-13T12:53:56.584Z,7.65
2023-01-13T12:56:33.457Z,7.75
2023-01-13T12:59:16.963Z,7.75
2023-01-13T13:01:46.067Z,7.74
2023-01-13T13:04:14.294Z,7.57
2023-01-13T13:06:51.239Z,7.57
2023-01-13T13:09:32.330Z,7.60
2023-01-13T13:12:49.935Z,7.68
2023-01-13T13:15:25.148Z,7.67
2023-01-13T13:18:00.045Z,7.67
2023-01-13T13:20:56.390Z,7.69
2023-01-13T13:24:04.540Z,7.49
2023-01-13T13:26:32.802Z,7.44
2023-01-13T13:29:28.659Z,7.50
2023-01-13T13:32:19.258Z,7.46
2023-01-13T13:35:12.248Z,7.49
2023-01-13T13:38:00.358Z,7.26
2023-01-13T13:40:50.805Z,7.32
2023-01-13T13:43:38.079Z,7.36
2023-01-13T13:46:42.485Z,7.44
2023-01-13T13:49:09.379Z,7.44
2023-01-13T13:51:46.381Z,7.49
2023-01-13T13:54:18.216Z,7.46
2023-01-13T13:56:47.358Z,7.42
2023-01-13T13:59:19.722Z,7.38
2023-01-13T14:01:53.622Z,7.29
2023-01-13T14:04:30.141Z,7.17
2023-01-13T14:07:04.393Z,7.12
2023-01-13T14:09:41.419Z,6.94
2023-01-13T14:12:25.867Z,6.88
2023-01-13T14:14:56.030Z,6.96
2023-01-13T14:17:26.251Z,6.96
2023-01-13T14:20:05.407Z,6.89
2023-01-13T14:22:32.862Z,6.85
2023-01-13T14:25:01.906Z,6.85
2023-01-13T14:27:30.475Z,6.75
2023-01-13T14:30:00.229Z,6.78
2023-01-13T14:32:35.069Z,6.76
2023-01-13T14:35:01.889Z,6.73
2023-01-13T14:37:28.627Z,6.74
2023-01-13T14:39:55.658Z,6.69
2023-01-13T14:42:22.369Z,6.63
2023-01-13T14:44:51.195Z,6.50
2023-01-13T14:47:32.198Z,6.47
2023-01-13T14:50:10.509Z,6.34
2023-01-13T14:52:47.982Z,6.24
2023-01-13T14:55:40.779Z,6.20
2023-01-13T14:58:22.594Z,6.09
2023-01-13T15:00:51.021Z,6.05
2023-01-13T15:03:20.571Z,5.96
2023-01-13T15:05:50.217Z,5.89
2023-01-13T15:08:24.384Z,5.97
2023-01-13T15:11:03.481Z,5.94
2023-01-13T15:13:53.123Z,5.91
2023-01-13T15:16:26.162Z,5.94
2023-01-13T15:18:55.198Z,5.85
2023-01-13T15:21:23.319Z,5.72
2023-01-13T15:23:50.211Z,5.60
2023-01-13T15:26:25.739Z,5.54
2023-01-13T15:28:55.550Z,5.53
2023-01-13T15:31:23.795Z,5.50
2023-01-13T15:33:50.990Z,5.44
2023-01-13T15:36:19.485Z,5.33
2023-01-13T15:38:46.088Z,5.34
2023-01-13T15:41:13.908Z,5.32
2023-01-13T15:43:59.328Z,5.44
2023-01-13T15:46:38.329Z,5.49
2023-01-13T15:49:12.764Z,5.49
2023-01-13T15:51:40.237Z,5.46
2023-01-13T15:54:08.136Z,5.48
2023-01-13T15:56:36.923Z,5.43
2023-01-13T15:59:11.045Z,5.37
2023-01-13T16:01:37.876Z,5.13
2023-01-13T16:04:04.751Z,5.15
2023-01-13T16:06:36.279Z,4.99
2023-01-13T16:09:04.659Z,4.80
2023-01-13T16:11:31.735Z,4.71
2023-01-13T16:13:58.554Z,4.65
2023-01-13T16:16:27.860Z,4.53
2023-01-13T16:18:55.241Z,4.54
2023-01-13T16:21:25.052Z,4.57
2023-01-13T16:23:52.519Z,4.60
2023-01-13T16:26:24.229Z,4.75
2023-01-13T16:28:52.949Z,4.74
2023-01-13T16:31:32.297Z,4.69
2023-01-13T16:34:01.286Z,4.78
2023-01-13T16:36:30.264Z,4.78
2023-01-13T16:38:57.509Z,4.72
2023-01-13T16:41:26.802Z,4.72
2023-01-13T16:43:54.084Z,4.64
2023-01-13T16:46:25.168Z,4.60
2023-01-13T16:48:53.966Z,4.60
2023-01-13T16:51:21.422Z,4.59
2023-01-13T16:53:48.835Z,4.53
2023-01-13T16:56:20.045Z,4.67
2023-01-13T16:58:47.473Z,4.62
2023-01-13T17:01:20.168Z,4.72
2023-01-13T17:03:49.303Z,4.67
2023-01-13T17:06:24.446Z,4.56
2023-01-13T17:08:53.199Z,4.55
2023-01-13T17:11:20.715Z,4.53
2023-01-13T17:13:47.574Z,4.41
2023-01-13T17:16:20.672Z,4.46
2023-01-13T17:18:48.307Z,4.34
2023-01-13T17:21:15.814Z,4.29
2023-01-13T17:23:42.801Z,4.08
2023-01-13T17:26:32.762Z,3.92
2023-01-13T17:29:00.641Z,4.02
2023-01-13T17:31:29.102Z,4.04
2023-01-13T17:33:56.114Z,4.28
2023-01-13T17:36:24.778Z,4.32
2023-01-13T17:38:52.100Z,4.33
2023-01-13T17:41:19.253Z,4.33
2023-01-13T17:43:46.021Z,4.37
2023-01-13T17:46:18.497Z,4.40
2023-01-13T17:48:47.894Z,4.36
2023-01-13T17:51:16.558Z,4.36
2023-01-13T17:53:45.525Z,4.35
2023-01-13T17:56:14.753Z,4.43
2023-01-13T17:58:41.842Z,4.19
2023-01-13T18:01:15.399Z,4.27
2023-01-13T18:03:42.742Z,4.40
2023-01-13T18:06:12.078Z,4.34
2023-01-13T18:08:38.793Z,4.27
2023-01-13T18:11:05.697Z,4.29
2023-01-13T18:13:34.861Z,4.19
2023-01-13T18:16:11.932Z,4.22
2023-01-13T18:18:40.937Z,4.14
2023-01-13T18:21:27.012Z,4.09
2023-01-13T18:24:12.356Z,4.00
2023-01-13T18:26:57.847Z,3.96
2023-01-13T18:29:25.117Z,3.97
2023-01-13T18:31:52.533Z,3.86
2023-01-13T18:34:19.499Z,3.84
2023-01-13T18:36:46.231Z,3.90
2023-01-13T18:39:13.225Z,3.87
2023-01-13T18:41:58.894Z,3.92
2023-01-13T18:44:25.753Z,3.69
2023-01-13T18:46:52.564Z,3.51
2023-01-13T18:49:19.297Z,3.38
2023-01-13T18:51:46.067Z,3.44
2023-01-13T18:54:12.861Z,3.61
2023-01-13T18:56:39.751Z,3.75
2023-01-13T18:59:06.450Z,3.77
2023-01-13T19:01:33.227Z,3.75
2023-01-13T19:04:04.794Z,3.91
2023-01-13T19:06:33.733Z,3.90
2023-01-13T19:09:08.636Z,3.89
2023-01-13T19:11:38.924Z,3.83
2023-01-13T19:14:05.721Z,3.90
2023-01-13T19:16:32.771Z,3.75
2023-01-13T19:19:00.279Z,3.51
2023-01-13T19:21:27.456Z,3.41
2023-01-13T19:23:54.532Z,3.38
2023-01-13T19:26:21.618Z,3.26
2023-01-13T19:28:50.714Z,3.28
2023-01-13T19:31:20.763Z,3.43
2023-01-13T19:33:47.764Z,3.29
2023-01-13T19:36:14.943Z,3.46
2023-01-13T19:38:42.012Z,3.51
2023-01-13T19:41:33.562Z,3.47
2023-01-13T19:44:19.221Z,3.47
2023-01-13T19:46:46.020Z,3.49
2023-01-13T19:49:12.935Z,3.46
2023-01-13T19:51:40.322Z,3.36
2023-01-13T19:54:07.971Z,3.19
2023-01-13T19:56:35.069Z,3.20
2023-01-13T19:59:01.837Z,3.18
2023-01-13T20:01:32.894Z,3.29
2023-01-13T20:04:03.507Z,3.20
2023-01-13T20:06:32.624Z,3.25
2023-01-13T20:08:59.407Z,3.43
2023-01-13T20:11:31.441Z,3.57
2023-01-13T20:13:59.680Z,3.72
2023-01-13T20:16:28.061Z,3.54
2023-01-13T20:18:55.323Z,3.38
2023-01-13T20:21:22.980Z,3.29
2023-01-13T20:23:51.409Z,3.17
2023-01-13T20:26:19.229Z,3.20
2023-01-13T20:28:46.945Z,3.37
2023-01-13T20:31:14.897Z,3.42
2023-01-13T20:33:42.018Z,3.64
2023-01-13T20:36:15.260Z,3.82
2023-01-13T20:38:42.009Z,3.86
2023-01-13T20:41:26.909Z,3.96
2023-01-13T20:43:53.781Z,4.05
2023-01-13T20:46:21.325Z,4.06
2023-01-13T20:48:48.374Z,3.94
2023-01-13T20:51:15.220Z,4.13
2023-01-13T20:53:41.939Z,4.07
2023-01-13T20:56:09.582Z,4.08
2023-01-13T20:58:38.944Z,4.09
2023-01-13T21:01:06.253Z,4.14
2023-01-13T21:03:33.704Z,4.04
2023-01-13T21:06:01.172Z,3.97
2023-01-13T21:08:28.183Z,3.98
2023-01-13T21:11:04.614Z,3.97
2023-01-13T21:13:51.514Z,3.74
2023-01-13T21:16:18.692Z,3.82
2023-01-13T21:19:04.441Z,3.78
2023-01-13T21:21:31.599Z,3.76
2023-01-13T21:23:58.444Z,3.75
2023-01-13T21:26:25.503Z,3.68
2023-01-13T21:29:00.256Z,3.69
2023-01-13T21:31:27.757Z,3.74
2023-01-13T21:33:59.427Z,3.76
2023-01-13T21:36:27.845Z,3.68
2023-01-13T21:38:58.439Z,3.59
2023-01-13T21:41:44.796Z,3.59
2023-01-13T21:44:39.402Z,3.53
2023-01-13T21:47:34.415Z,3.42
2023-01-13T21:50:01.934Z,3.42
2023-01-13T21:52:28.702Z,3.40
2023-01-13T21:55:14.328Z,3.29
2023-01-13T21:57:45.500Z,3.31
2023-01-13T22:00:12.739Z,3.25
2023-01-13T22:02:39.422Z,3.30
2023-01-13T22:05:08.318Z,3.25
2023-01-13T22:07:36.593Z,3.23
2023-01-13T22:10:04.668Z,3.05
2023-01-13T22:12:31.527Z,2.92
2023-01-13T22:14:58.463Z,2.97
2023-01-13T22:17:27.406Z,2.98
2023-01-13T22:19:57.189Z,2.91
2023-01-13T22:22:25.274Z,2.96
2023-01-13T22:24:53.662Z,2.96
2023-01-13T22:27:23.619Z,2.98
2023-01-13T22:29:51.617Z,3.03
2023-01-13T22:32:20.009Z,3.08
2023-01-13T22:34:48.034Z,3.06
2023-01-13T22:37:15.873Z,2.85
2023-01-13T22:39:42.626Z,2.81
2023-01-13T22:42:10.222Z,2.76
2023-01-13T22:44:37.070Z,2.51
2023-01-13T22:47:03.947Z,2.61
2023-01-13T22:49:30.651Z,2.65
2023-01-13T22:51:57.473Z,2.61
2023-01-13T22:54:24.183Z,2.59
2023-01-13T22:56:50.929Z,2.60
2023-01-13T22:59:17.770Z,2.53
2023-01-13T23:01:44.487Z,2.46
2023-01-13T23:04:15.067Z,2.43
2023-01-13T23:06:42.072Z,2.46
2023-01-13T23:09:10.134Z,2.48
2023-01-13T23:11:37.040Z,2.46
2023-01-13T23:14:06.505Z,2.48
2023-01-13T23:16:36.223Z,2.39
2023-01-13T23:19:04.552Z,2.39
2023-01-13T23:21:33.985Z,2.45
2023-01-13T23:24:00.789Z,2.43
2023-01-13T23:26:28.685Z,2.36
2023-01-13T23:29:04.129Z,2.29
2023-01-13T23:31:31.263Z,2.27
2023-01-13T23:33:58.641Z,2.22
2023-01-13T23:36:28.216Z,2.29
2023-01-13T23:38:55.490Z,2.22
2023-01-13T23:41:23.483Z,2.25
2023-01-13T23:44:00.956Z,2.22
2023-01-13T23:46:30.029Z,2.10
2023-01-13T23:48:56.921Z,2.05
2023-01-13T23:51:26.444Z,2.03
2023-01-13T23:53:54.473Z,2.07
2023-01-13T23:56:26.740Z,1.94
2023-01-13T23:58:53.907Z,1.91
